• Join FlightAware (Why Join?)
  • Login
  • US Flag 
03:00PM EDT


 

Airport Tracker/Info


-or-


 

Live Flight TrackerFlight Track Log ✈ UAL4295 ✈ 20-Apr-2013 ✈ KEWR - KMCI

Flight Track Log - Related Links

Times and Time Zones

All times are in EDT time to prevent confusion due to time zone crossing. See the UAL4295 flight status page for this flight to view local times or setup timezone preferences in your user account.

Time Position Orientation Groundspeed Altitude Reporting Facility
EDT Latitude Longitude Course Direction KTS MPH feet Rate Location/Type
06:59PM 40.6500 -74.1833 276° West 180 207 1,600  Level New York TRACON
07:00PM 40.6500 -74.2333 270° West 202 232 3,200 2,220 Climbing New York TRACON
07:02PM 40.7453 -74.6480 277° West  Level FlightAware Approximate
07:02PM 40.6767 -74.3994 282° West 228 262 8,500  Level New York Center
07:03PM 40.7557 -74.7732 276° West  Level FlightAware Approximate
07:03PM 40.6911 -74.4769 284° West 241 277 10,700  Level New York Center
07:04PM 40.7653 -74.8985 276° West  Level FlightAware Approximate
07:04PM 40.7125 -74.5875 284° West 265 305 11,700  Level New York Center
07:05PM 40.7297 -74.6953 282° West 300 345 13,800 1,680 Climbing New York Center
07:06PM 40.7492 -74.8006 284° West 300 345 15,200 1,500 Climbing New York Center
07:07PM 40.7681 -74.9139 282° West 300 345 16,800 1,440 Climbing New York Center
07:08PM 40.7869 -75.0247 283° West 306 352 18,100 1,140 Climbing New York Center
07:09PM 40.8019 -75.1269 281° West 312 359 19,200 1,140 Climbing New York Center
07:10PM 40.7875 -75.2414 261° West 312 359 20,500 1,200 Climbing New York Center
07:11PM 40.7706 -75.3553 259° West 312 359 21,600 1,020 Climbing New York Center
07:12PM 40.7372 -75.4597 247° West 312 359 22,600 900 Climbing New York Center
07:13PM 40.6997 -75.5667 245° Southwest 317 365 23,500 900 Climbing New York Center
07:14PM 40.6597 -75.6733 244° Southwest 329 379 24,500 900 Climbing New York Center
07:15PM 40.6203 -75.7744 243° Southwest 329 379 25,400 900 Climbing New York Center
07:16PM 40.5803 -75.8808 244° Southwest 329 379 26,400 1,020 Climbing New York Center
07:17PM 40.5358 -75.9867 241° Southwest 329 379 27,500 1,020 Climbing New York Center
07:18PM 40.5003 -76.0878 245° Southwest 329 379 28,500 960 Climbing New York Center
07:19PM 40.4603 -76.1856 242° Southwest 323 372 29,500 960 Climbing New York Center
07:20PM 40.4222 -76.2864 244° Southwest 318 366 30,500 960 Climbing New York Center
07:21PM 40.3844 -76.3814 242° Southwest 313 360 31,500 960 Climbing New York Center
07:22PM 40.3483 -76.4819 245° Southwest 308 354 32,500 960 Climbing New York Center
07:23PM 40.3128 -76.5717 243° Southwest 301 346 33,500 960 Climbing New York Center
07:24PM 40.2750 -76.6583 240° Southwest 295 339 34,500 900 Climbing New York Center
07:25PM 40.2394 -76.7478 243° Southwest 284 327 35,400 300 Climbing New York Center
07:28PM 40.1128 -77.0647 242° Southwest 301 346 36,000 120 Climbing Cleveland Center
07:29PM 40.0722 -77.1644 242° Southwest 316 364 36,000  Level Cleveland Center
07:30PM 40.0272 -77.2725 241° Southwest 326 375 36,000  Level Cleveland Center
07:31PM 39.9844 -77.3803 243° Southwest 337 388 36,000  Level Cleveland Center
07:32PM 39.9586 -77.4953 254° West 331 381 36,000  Level Cleveland Center
07:33PM 39.9642 -77.6250 273° West 338 389 36,000  Level Cleveland Center
07:34PM 39.9675 -77.7578 272° West 354 407 36,000  Level Cleveland Center
07:35PM 39.9706 -77.8903 272° West 365 420 36,000  Level Cleveland Center
07:36PM 39.9758 -78.0203 273° West 365 420 36,000  Level Cleveland Center
07:37PM 39.9786 -78.1528 272° West 365 420 36,000  Level Cleveland Center
07:38PM 39.9814 -78.2828 272° West 365 420 36,000  Level Cleveland Center
07:39PM 39.9819 -78.4128 270° West 365 420 36,000  Level Cleveland Center
07:40PM 39.9842 -78.5428 271° West 365 420 36,000  Level Cleveland Center
07:41PM 39.9886 -78.6781 272° West 365 420 36,000  Level Cleveland Center
07:42PM 39.9931 -78.8136 272° West 365 420 36,000  Level Cleveland Center
07:43PM 39.9992 -78.9461 273° West 365 420 36,000  Level Cleveland Center
07:44PM 40.0069 -79.0681 275° West 370 426 36,000  Level Cleveland Center
07:45PM 40.0089 -79.2036 271° West 370 426 36,000  Level Cleveland Center
07:46PM 40.0125 -79.3389 272° West 375 432 36,000  Level Cleveland Center
07:47PM 40.0181 -79.4797 273° West 380 437 36,000  Level Cleveland Center
07:48PM 40.0233 -79.6153 273° West 380 437 36,000  Level Cleveland Center
07:49PM 40.0244 -79.7508 271° West 380 437 36,000  Level Cleveland Center
07:50PM 40.0297 -79.8836 273° West 380 437 36,000  Level Cleveland Center
07:51PM 40.0303 -80.0192 270° West 380 437 36,000  Level Cleveland Center
07:52PM 40.0350 -80.1572 273° West 385 443 36,000  Level Cleveland Center
07:53PM 40.0375 -80.2956 271° West 385 443 36,000  Level Cleveland Center
07:54PM 40.0400 -80.4311 271° West 379 436 36,000  Level Cleveland Center
07:55PM 40.0422 -80.5667 271° West 379 436 36,000  Level Cleveland Center
07:56PM 40.0442 -80.7050 271° West 384 442 36,000  Level Cleveland Center
07:58PM 40.0456 -80.9839 270° West 384 442 36,000  Level Indianapolis Center
07:59PM 40.0475 -81.1253 271° West 385 443 36,000  Level Indianapolis Center
08:00PM 40.0492 -81.2656 271° West 385 443 36,000  Level Indianapolis Center
08:01PM 40.0506 -81.4089 271° West 388 447 36,000  Level Indianapolis Center
08:02PM 40.0522 -81.5511 271° West 388 447 36,000  Level Indianapolis Center
08:03PM 40.0531 -81.6933 270° West 388 447 36,000  Level Indianapolis Center
08:04PM 40.0544 -81.8336 271° West 387 445 36,000  Level Indianapolis Center
08:05PM 40.0556 -81.9764 271° West 389 448 36,000 -60 Level Indianapolis Center
08:06PM 40.0561 -82.1169 270° West 386 444 35,900  Descending Indianapolis Center
08:07PM 40.0567 -82.2547 270° West 379 436 36,000  Climbing Indianapolis Center
08:09PM 40.0569 -82.3919 270° West 375 432 36,000  Level Indianapolis Center
08:10PM 40.0569 -82.5294 270° West 376 433 36,000  Level Indianapolis Center
08:11PM 40.0567 -82.6667 270° West 376 433 36,000  Level Indianapolis Center
08:12PM 40.0569 -82.8067 270° West 382 440 36,000  Level Indianapolis Center
08:13PM 40.0558 -82.9450 269° West 381 438 36,000  Level Indianapolis Center
08:14PM 40.0561 -83.0844 270° West 382 440 36,000  Level Indianapolis Center
08:15PM 40.0544 -83.2258 269° West 387 445 36,000  Level Indianapolis Center
08:16PM 40.0542 -83.3647 270° West 385 443 36,000  Level Indianapolis Center
08:17PM 40.0533 -83.5042 270° West 386 444 36,000  Level Indianapolis Center
08:18PM 40.0522 -83.6450 269° West 389 448 36,000  Level Indianapolis Center
08:19PM 40.0500 -83.7850 269° West 386 444 36,000  Level Indianapolis Center
08:20PM 40.0489 -83.9506 270° West 389 448 36,000  Level Indianapolis Center
08:21PM 40.0475 -84.0903 269° West 385 443 36,000  Level Indianapolis Center
08:22PM 40.0464 -84.2311 269° West 386 444 36,000  Level Indianapolis Center
08:23PM 40.0436 -84.3703 269° West 382 440 36,000  Level Indianapolis Center
08:24PM 40.0419 -84.5097 269° West 382 440 36,000  Level Indianapolis Center
08:25PM 40.0383 -84.6478 268° West 379 436 36,000  Level Indianapolis Center
08:26PM 40.0367 -84.7869 269° West 380 437 36,000  Level Indianapolis Center
08:27PM 40.0325 -84.9261 268° West 380 437 36,000  Level Indianapolis Center
08:28PM 40.0306 -85.0658 269° West 383 441 36,000  Level Indianapolis Center
08:29PM 40.0267 -85.2067 268° West 385 443 36,000  Level Indianapolis Center
08:30PM 40.0236 -85.3486 268° West 386 444 36,000  Level Indianapolis Center
08:31PM 40.0197 -85.4869 268° West 381 438 36,000  Level Indianapolis Center
08:32PM 40.0181 -85.6250 269° West 378 435 36,000  Level Indianapolis Center
08:32PM 40.0167 -85.6714 268° West 378 435 36,000  Level Indianapolis Center
08:33PM 40.0111 -85.8094 267° West 378 435 36,000  Level Indianapolis Center
08:34PM 40.0069 -85.9569 268° West 383 441 36,000  Level Indianapolis Center
08:35PM 40.0033 -86.0981 268° West 387 445 36,000  Level Indianapolis Center
08:36PM 40.0019 -86.1392 267° West 385 443 36,000  Level Chicago Center
08:37PM 39.9969 -86.2817 267° West 390 449 36,000  Level Chicago Center
08:37PM 39.9947 -86.3806 268° West 390 449 36,000  Level Indianapolis Center
08:38PM 39.9892 -86.5231 267° West 391 450 36,000  Level Indianapolis Center
08:39PM 39.9856 -86.6642 268° West 391 450 36,000  Level Indianapolis Center
08:40PM 39.9800 -86.8067 267° West 392 451 36,000  Level Indianapolis Center
08:41PM 39.9750 -86.9483 267° West 392 451 36,000  Level Indianapolis Center
08:42PM 39.9692 -87.0908 267° West 393 452 36,000  Level Indianapolis Center
08:43PM 39.9628 -87.2328 267° West 392 451 36,000  Level Indianapolis Center
08:44PM 39.9575 -87.3750 267° West 392 451 36,000  Level Indianapolis Center
08:45PM 39.9519 -87.5147 267° West 387 445 36,000  Level Indianapolis Center
08:46PM 39.9450 -87.6547 266° West 387 445 36,000  Level Indianapolis Center
08:47PM 39.9392 -87.7953 267° West 388 447 36,000  Level Indianapolis Center
08:48PM 39.9322 -87.9647 267° West 389 448 36,000  Level Indianapolis Center
08:49PM 39.9311 -87.9836 266° West 391 450 36,000  Level Kansas City Center
08:50PM 39.9225 -88.1275 266° West 395 455 36,000  Level Kansas City Center
08:51PM 39.9172 -88.2964 268° West 393 452 36,000  Level Chicago Center
08:52PM 39.9100 -88.4381 266° West 393 452 36,000  Level Chicago Center
08:53PM 39.9031 -88.5831 266° West 399 459 36,000  Level Chicago Center
08:54PM 39.8950 -88.7239 266° West 392 451 36,000  Level Chicago Center
08:55PM 39.8867 -88.8667 266° West 393 452 36,000  Level Kansas City Center
08:56PM 39.8794 -89.0094 266° West 395 455 36,000  Level Kansas City Center
08:57PM 39.8706 -89.1517 265° West 394 453 36,000  Level Kansas City Center
08:58PM 39.8622 -89.2958 266° West 395 455 36,000  Level Kansas City Center
08:59PM 39.8542 -89.4406 266° West 397 457 36,000  Level Kansas City Center
09:00PM 39.8456 -89.5825 266° West 395 455 36,000  Level Kansas City Center
09:01PM 39.8392 -89.7269 267° West 397 457 36,000  Level Kansas City Center
09:02PM 39.8417 -89.8700 271° West 396 456 36,000  Level Kansas City Center
09:03PM 39.8433 -90.0156 271° West 399 459 36,000  Level Kansas City Center
09:04PM 39.8447 -90.1606 271° West 399 459 36,000  Level Kansas City Center
09:05PM 39.8453 -90.3056 270° West 399 459 36,000  Level Kansas City Center
09:06PM 39.8464 -90.4500 271° West 399 459 36,000  Level Kansas City Center
09:07PM 39.8475 -90.5939 271° West 399 459 36,000  Level Kansas City Center
09:08PM 39.8481 -90.7397 270° West 400 460 36,000  Level Kansas City Center
09:09PM 39.8478 -90.9125 270° West 399 459 36,000  Level Kansas City Center
09:10PM 39.8475 -91.0414 270° West 396 456 36,000  Level Kansas City Center
09:11PM 39.8472 -91.1858 270° West 400 460 36,000  Level Kansas City Center
09:12PM 39.8464 -91.3289 270° West 398 458 36,000  Level Kansas City Center
09:13PM 39.8350 -91.4717 264° West 399 459 36,000  Level Kansas City Center
09:14PM 39.8206 -91.6469 264° West 402 463 36,000  Level Kansas City Center
09:15PM 39.8089 -91.7928 264° West 405 466 36,000  Level Kansas City Center
09:16PM 39.7986 -91.9381 265° West 406 467 36,000  Level Kansas City Center
09:17PM 39.7867 -92.0836 264° West 406 467 36,000  Level Kansas City Center
09:18PM 39.7761 -92.2269 265° West 405 466 36,000 -780 Level Kansas City Center
09:19PM 39.7639 -92.3686 264° West 400 460 34,500 -2,040 Descending Kansas City Center
09:20PM 39.7522 -92.5078 264° West 395 455 32,000 -2,280 Descending Kansas City Center
09:21PM 39.7414 -92.6400 264° West 384 442 29,900 -2,040 Descending Kansas City Center
09:22PM 39.7286 -92.7806 263° West 385 443 27,900 -2,040 Descending Kansas City Center
09:23PM 39.7153 -92.9358 264° West 414 476 25,800 -2,220 Descending Kansas City Center
09:24PM 39.7019 -93.0825 263° West 417 480 23,400 -2,400 Descending Kansas City Center
09:25PM 39.6892 -93.2281 264° West 409 471 21,000 -2,460 Descending Kansas City Center
09:26PM 39.6731 -93.3953 263° West 394 453 18,600 -2,160 Descending Kansas City Center
09:27PM 39.6617 -93.5319 264° West 389 448 16,700 -1,980 Descending Kansas City Center
09:28PM 39.6500 -93.6622 263° West 370 426 14,600 -2,160 Descending Kansas City Center
09:29PM 39.6381 -93.7933 263° West 361 415 12,400 -2,100 Descending Kansas City Center
09:30PM 39.6175 -93.9072 257° West 343 395 10,400 -1,200 Descending Kansas City Center
09:31PM 39.5642 -94.0222 239° Southwest 326 375 10,000 -240 Descending Kansas City Center
09:33PM 39.5428 -94.1319 256° West 326 375 10,000 -240 Level Kansas City Center
09:34PM 39.5225 -94.2258 254° West 277 319 9,600 -1,080 Descending Kansas City Center
09:35PM 39.5019 -94.3231 255° West 253 291 7,900 -1,560 Descending Kansas City Center
09:36PM 39.4842 -94.4047 254° West 248 285 6,500 -1,440 Descending Kansas City Center
09:37PM 39.4672 -94.4861 255° West 245 282 5,000 -1,740 Descending Kansas City Center
09:38PM 39.4433 -94.5750 251° West 235 270 3,000 -2,040 Descending Kansas City Center